Time;durP1;ratioP1;P1;durP2;ratioP2;P2;SDS_P1;SDS_P2;PMS_P1;PMS_P2;Temp;Humidity;BMP_temperature;BMP_pressure;BME280_temperature;BME280_humidity;BME280_pressure;Samples;Min_cycle;Max_cycle;Signal;HPM_P1;HPM_P2
2023/03/09 00:00:53;;;;;;;13.55;7.45;;;2.00;99.90;;;;;;5084226;28;20052;-63
2023/03/09 00:03:19;;;;;;;16.45;8.30;;;1.90;99.90;;;;;;5093308;28;20482;-63
2023/03/09 00:05:53;;;;;;;13.90;7.65;;;1.90;99.90;;;;;;5111013;28;20039;-63
2023/03/09 00:08:19;;;;;;;15.80;8.38;;;1.90;99.90;;;;;;5111552;28;20035;-64
2023/03/09 00:10:44;;;;;;;14.40;7.25;;;1.80;99.90;;;;;;5111315;28;20035;-64
2023/03/09 00:13:10;;;;;;;15.68;8.00;;;1.80;99.90;;;;;;5111115;28;20043;-63
2023/03/09 00:15:36;;;;;;;13.18;6.78;;;1.90;99.90;;;;;;5110941;28;20484;-63
2023/03/09 00:18:01;;;;;;;12.68;6.65;;;1.80;99.90;;;;;;5112421;28;20492;-64
2023/03/09 00:20:27;;;;;;;13.85;7.45;;;1.80;99.90;;;;;;5112281;28;20038;-63
2023/03/09 00:22:54;;;;;;;13.88;7.45;;;1.80;99.90;;;;;;5110617;28;20028;-63
2023/03/09 00:25:21;;;;;;;14.68;7.22;;;1.80;99.90;;;;;;5111843;28;20605;-63
2023/03/09 00:27:52;;;;;;;12.23;7.05;;;1.90;99.90;;;;;;5111363;28;20110;-63
2023/03/09 00:30:19;;;;;;;12.52;6.53;;;1.80;99.90;;;;;;5110003;28;20035;-63
2023/03/09 00:32:45;;;;;;;14.60;7.60;;;1.80;99.90;;;;;;5102871;28;20042;-63
2023/03/09 00:35:11;;;;;;;13.93;7.13;;;1.80;99.90;;;;;;5091912;28;20047;-63
2023/03/09 00:37:37;;;;;;;12.05;7.20;;;1.80;99.90;;;;;;5094334;28;20037;-63
2023/03/09 00:40:07;;;;;;;15.00;8.50;;;1.80;99.90;;;;;;5094789;28;20119;-63
2023/03/09 00:42:33;;;;;;;14.23;8.38;;;1.80;99.90;;;;;;5095045;28;20420;-63
2023/03/09 00:45:00;;;;;;;13.27;7.00;;;1.70;99.90;;;;;;5096176;28;20365;-63
2023/03/09 00:47:27;;;;;;;14.10;8.00;;;1.70;99.90;;;;;;5094784;28;20075;-63
2023/03/09 00:49:52;;;;;;;15.45;8.32;;;1.70;99.90;;;;;;5073997;28;20128;-63
2023/03/09 00:52:18;;;;;;;16.30;7.63;;;1.60;99.90;;;;;;5073987;28;20542;-63
2023/03/09 00:54:43;;;;;;;17.25;8.40;;;1.60;99.90;;;;;;5075688;28;20093;-63
2023/03/09 00:57:09;;;;;;;13.95;8.13;;;1.60;99.90;;;;;;5073983;28;20047;-63
2023/03/09 00:59:35;;;;;;;13.15;7.78;;;1.60;99.90;;;;;;5074437;28;20041;-63
2023/03/09 01:02:00;;;;;;;13.00;7.25;;;1.50;99.90;;;;;;5074070;28;20127;-63
2023/03/09 01:04:26;;;;;;;18.45;8.80;;;1.50;99.90;;;;;;5092918;28;20040;-63
2023/03/09 01:06:55;;;;;;;16.90;8.32;;;1.50;99.90;;;;;;5094344;28;20044;-63
2023/03/09 01:09:21;;;;;;;14.90;8.10;;;1.50;99.90;;;;;;5094990;28;20048;-63
2023/03/09 01:11:47;;;;;;;14.95;7.68;;;1.50;99.90;;;;;;5093510;28;20051;-63
2023/03/09 01:14:12;;;;;;;14.52;8.13;;;1.40;99.90;;;;;;5093717;28;20040;-63
2023/03/09 01:16:38;;;;;;;14.00;7.78;;;1.40;99.90;;;;;;5095302;28;20051;-63
2023/03/09 01:19:04;;;;;;;18.95;8.55;;;1.40;99.90;;;;;;5093097;28;20093;-63
2023/03/09 01:21:30;;;;;;;17.75;9.02;;;1.40;99.90;;;;;;5077206;28;20129;-63
2023/03/09 01:23:55;;;;;;;15.93;9.23;;;1.30;99.90;;;;;;5094029;28;20028;-63
2023/03/09 01:26:21;;;;;;;17.13;9.10;;;1.30;99.90;;;;;;5093623;28;20097;-63
2023/03/09 01:28:47;;;;;;;15.38;8.50;;;1.30;99.90;;;;;;5094296;28;20116;-63
2023/03/09 01:31:15;;;;;;;19.05;8.98;;;1.20;99.90;;;;;;5093713;28;20123;-63
2023/03/09 01:33:42;;;;;;;18.27;10.07;;;1.20;99.90;;;;;;5093455;28;20120;-63
2023/03/09 01:36:13;;;;;;;15.77;8.25;;;1.20;99.90;;;;;;5076243;28;20039;-63
2023/03/09 01:38:39;;;;;;;15.98;8.43;;;1.20;99.90;;;;;;5056659;28;20123;-63
2023/03/09 01:41:04;;;;;;;17.05;8.85;;;1.10;99.90;;;;;;5092795;28;20218;-63
2023/03/09 01:43:40;;;;;;;16.02;9.32;;;1.10;99.90;;;;;;5095132;28;20036;-63
2023/03/09 01:46:24;;;;;;;;;;;1.10;99.90;;;;;;5093187;28;20468;-63
2023/03/09 01:49:13;;;;;;;18.70;10.38;;;1.00;99.90;;;;;;5095022;28;19959;-63
2023/03/09 01:52:06;;;;;;;18.38;9.73;;;1.00;99.90;;;;;;5094832;28;20481;-63
2023/03/09 01:54:48;;;;;;;19.55;10.35;;;0.90;99.90;;;;;;5092775;28;20050;-63
2023/03/09 01:57:27;;;;;;;19.27;10.48;;;0.90;99.90;;;;;;5072669;28;20067;-63
2023/03/09 01:59:56;;;;;;;19.33;9.88;;;0.90;99.90;;;;;;5072369;28;20036;-62
2023/03/09 02:02:26;;;;;;;17.27;10.18;;;0.90;99.90;;;;;;5074005;28;20093;-63
2023/03/09 02:04:57;;;;;;;19.23;10.18;;;0.90;99.90;;;;;;5073371;28;20114;-63
2023/03/09 02:07:24;;;;;;;19.38;10.23;;;0.90;99.90;;;;;;5071661;28;20052;-63
2023/03/09 02:10:08;;;;;;;24.17;10.43;;;0.80;99.90;;;;;;5057855;28;20059;-63
2023/03/09 02:12:34;;;;;;;19.13;9.68;;;0.80;99.90;;;;;;5089923;28;20041;-63
2023/03/09 02:15:02;;;;;;;15.98;9.55;;;0.80;99.90;;;;;;5073381;28;20370;-63
2023/03/09 02:17:29;;;;;;;16.88;9.73;;;0.80;99.90;;;;;;5089481;28;20040;-63
2023/03/09 02:20:09;;;;;;;20.85;11.10;;;0.80;99.90;;;;;;5074152;28;20044;-63
2023/03/09 02:22:37;;;;;;;19.65;10.55;;;0.80;99.90;;;;;;5071801;28;20040;-63
2023/03/09 02:25:08;;;;;;;20.30;10.98;;;0.80;99.90;;;;;;5074652;28;20041;-63
2023/03/09 02:27:34;;;;;;;17.45;9.82;;;0.80;99.90;;;;;;5094341;28;20047;-63
2023/03/09 02:30:00;;;;;;;17.73;10.10;;;0.80;99.90;;;;;;5092267;28;20407;-63
2023/03/09 02:32:29;;;;;;;18.48;10.45;;;0.80;99.90;;;;;;5093732;28;20438;-63
2023/03/09 02:34:55;;;;;;;20.60;11.10;;;0.80;99.90;;;;;;5093496;28;20068;-63
2023/03/09 02:37:27;;;;;;;21.52;11.52;;;0.80;99.90;;;;;;5091794;28;20496;-63
2023/03/09 02:39:56;;;;;;;20.77;10.90;;;0.80;99.90;;;;;;5075925;28;20078;-63
2023/03/09 02:42:23;;;;;;;18.45;10.15;;;0.80;99.90;;;;;;5094850;28;20400;-63
2023/03/09 02:44:50;;;;;;;19.70;9.90;;;0.80;99.90;;;;;;5111286;28;20046;-63
2023/03/09 02:47:21;;;;;;;18.92;10.82;;;0.80;99.90;;;;;;5112560;28;20150;-63
2023/03/09 02:49:47;;;;;;;19.15;11.30;;;0.80;99.90;;;;;;5112134;28;20043;-63
2023/03/09 02:52:13;;;;;;;17.50;9.57;;;0.80;99.90;;;;;;5112346;28;20049;-63
2023/03/09 02:54:39;;;;;;;18.25;10.68;;;0.80;99.90;;;;;;5095844;28;20039;-63
2023/03/09 02:57:05;;;;;;;20.50;10.82;;;0.80;99.90;;;;;;5110949;28;20036;-63
2023/03/09 02:59:31;;;;;;;20.00;11.55;;;0.80;99.90;;;;;;5113516;28;20066;-63
2023/03/09 03:01:57;;;;;;;19.60;10.27;;;0.80;99.90;;;;;;5112676;28;20039;-62
2023/03/09 03:04:23;;;;;;;21.92;11.50;;;0.80;99.90;;;;;;5110929;28;20125;-63
2023/03/09 03:06:48;;;;;;;20.92;10.60;;;0.80;99.90;;;;;;5112400;28;20032;-63
2023/03/09 03:09:14;;;;;;;18.52;10.75;;;0.80;99.90;;;;;;5111831;28;20039;-63
2023/03/09 03:11:39;;;;;;;18.08;10.30;;;0.80;99.90;;;;;;5111636;28;20054;-63
2023/03/09 03:14:05;;;;;;;21.85;10.55;;;0.80;99.90;;;;;;5111701;28;20052;-63
2023/03/09 03:16:34;;;;;;;21.80;12.77;;;0.80;99.90;;;;;;5112530;28;20032;-63
2023/03/09 03:18:59;;;;;;;21.17;11.82;;;0.80;99.90;;;;;;5113158;27;20039;-63
2023/03/09 03:21:25;;;;;;;22.90;11.07;;;0.80;99.90;;;;;;5111975;28;20031;-63
2023/03/09 03:23:51;;;;;;;22.13;11.15;;;0.80;99.90;;;;;;5112248;28;20090;-63
2023/03/09 03:26:17;;;;;;;22.42;10.98;;;0.80;99.90;;;;;;5110897;28;20075;-63
2023/03/09 03:28:43;;;;;;;19.15;11.02;;;0.80;99.90;;;;;;5112012;28;20035;-63
2023/03/09 03:31:10;;;;;;;21.15;11.85;;;0.80;99.90;;;;;;5112466;28;20031;-63
2023/03/09 03:33:35;;;;;;;21.05;11.90;;;0.80;99.90;;;;;;5111795;28;20042;-63
2023/03/09 03:36:01;;;;;;;21.17;11.63;;;0.80;99.90;;;;;;5111980;28;20543;-63
2023/03/09 03:38:27;;;;;;;20.88;10.82;;;0.80;99.90;;;;;;5112058;28;20078;-63
2023/03/09 03:40:52;;;;;;;23.13;12.48;;;0.80;99.90;;;;;;5111724;28;20136;-63
2023/03/09 03:43:18;;;;;;;20.15;11.18;;;0.80;99.90;;;;;;5111469;28;20122;-63
2023/03/09 03:45:43;;;;;;;23.85;11.30;;;0.80;99.90;;;;;;5112266;28;20463;-63
2023/03/09 03:48:09;;;;;;;20.60;11.77;;;0.80;99.90;;;;;;5093835;28;20092;-63
2023/03/09 03:50:35;;;;;;;21.75;12.40;;;0.80;99.90;;;;;;5112823;28;20040;-63
2023/03/09 03:53:00;;;;;;;21.13;10.35;;;0.80;99.90;;;;;;5111955;28;20399;-63
2023/03/09 03:55:27;;;;;;;21.15;11.73;;;0.80;99.90;;;;;;5094568;28;20039;-63
2023/03/09 03:57:52;;;;;;;23.30;12.65;;;0.80;99.90;;;;;;5111768;28;20039;-63
2023/03/09 04:00:19;;;;;;;22.00;10.93;;;0.80;99.90;;;;;;5110471;28;20039;-63
2023/03/09 04:02:45;;;;;;;24.15;12.93;;;0.80;99.90;;;;;;5094524;28;20035;-63
2023/03/09 04:05:11;;;;;;;27.55;12.43;;;0.80;99.90;;;;;;5093432;28;20051;-63
2023/03/09 04:07:36;;;;;;;21.88;11.73;;;0.80;99.90;;;;;;5093835;28;20113;-63
2023/03/09 04:10:03;;;;;;;25.42;11.55;;;0.90;99.90;;;;;;5111488;28;20035;-63
2023/03/09 04:12:29;;;;;;;22.08;12.95;;;0.90;99.90;;;;;;5111333;28;20119;-63
2023/03/09 04:14:55;;;;;;;27.10;12.80;;;0.90;99.90;;;;;;5109136;28;20547;-63
2023/03/09 04:17:20;;;;;;;23.52;13.10;;;0.90;99.90;;;;;;5111846;28;20047;-63
2023/03/09 04:19:46;;;;;;;24.35;12.30;;;0.90;99.90;;;;;;5111503;28;20040;-63
2023/03/09 04:22:12;;;;;;;25.73;14.55;;;0.90;99.90;;;;;;5099276;28;20111;-63
2023/03/09 04:24:37;;;;;;;25.83;14.60;;;0.90;99.90;;;;;;5071084;28;20392;-63
2023/03/09 04:27:03;;;;;;;22.50;11.77;;;0.90;99.90;;;;;;5070548;28;20062;-62
2023/03/09 04:29:29;;;;;;;24.55;12.25;;;1.00;99.90;;;;;;5084026;28;20040;-63
2023/03/09 04:31:54;;;;;;;23.70;12.40;;;1.00;99.90;;;;;;5090837;28;20040;-63
2023/03/09 04:34:20;;;;;;;21.45;11.98;;;1.00;99.90;;;;;;5090156;28;20040;-63
2023/03/09 04:36:46;;;;;;;26.42;12.65;;;1.00;99.90;;;;;;5089980;28;20476;-63
2023/03/09 04:39:12;;;;;;;25.77;13.63;;;1.00;99.90;;;;;;5090292;28;20039;-62
2023/03/09 04:41:37;;;;;;;23.33;11.98;;;1.00;99.90;;;;;;5091109;28;20055;-63
2023/03/09 04:44:03;;;;;;;39.63;22.95;;;1.10;99.90;;;;;;5087414;28;20049;-63
2023/03/09 04:46:29;;;;;;;29.08;15.20;;;1.10;99.90;;;;;;5096979;28;20437;-63
2023/03/09 04:48:54;;;;;;;28.30;16.55;;;1.10;99.90;;;;;;5110412;28;20501;-63
2023/03/09 04:51:20;;;;;;;25.67;14.18;;;1.10;99.90;;;;;;5110829;28;20081;-63
2023/03/09 04:53:46;;;;;;;26.13;13.48;;;1.10;99.90;;;;;;5112366;28;20473;-62
2023/03/09 04:56:12;;;;;;;23.95;13.40;;;1.10;99.90;;;;;;5110892;28;20043;-63
2023/03/09 04:58:37;;;;;;;24.48;14.07;;;1.10;99.90;;;;;;5111051;28;20078;-63
2023/03/09 05:01:03;;;;;;;22.83;13.27;;;1.20;99.90;;;;;;5093375;28;20039;-63
2023/03/09 05:03:29;;;;;;;23.65;13.18;;;1.20;99.90;;;;;;5111345;28;20040;-63
2023/03/09 05:05:55;;;;;;;24.85;13.57;;;1.20;99.90;;;;;;5112231;28;20031;-63
2023/03/09 05:08:20;;;;;;;23.90;12.68;;;1.20;99.90;;;;;;5110118;28;20122;-62
2023/03/09 05:10:46;;;;;;;27.77;12.63;;;1.20;99.90;;;;;;5110399;28;20039;-63
2023/03/09 05:13:12;;;;;;;22.67;12.57;;;1.20;99.90;;;;;;5110548;28;20481;-62
2023/03/09 05:15:41;;;;;;;24.33;13.00;;;1.20;99.90;;;;;;5099658;28;20489;-62
2023/03/09 05:18:08;;;;;;;24.40;13.88;;;1.20;99.90;;;;;;5052008;28;20037;-62
2023/03/09 05:20:34;;;;;;;25.02;14.27;;;1.10;99.90;;;;;;5072258;28;20067;-62
2023/03/09 05:23:00;;;;;;;23.92;13.43;;;1.20;99.90;;;;;;5075204;28;20516;-62
2023/03/09 05:25:26;;;;;;;29.45;14.45;;;1.10;99.90;;;;;;5074384;28;20473;-62
2023/03/09 05:27:52;;;;;;;25.67;13.60;;;1.10;99.90;;;;;;5073791;28;20090;-62
2023/03/09 05:30:19;;;;;;;23.92;13.40;;;1.10;99.90;;;;;;5092971;28;20040;-62
2023/03/09 05:32:51;;;;;;;25.80;14.32;;;1.10;99.90;;;;;;5089789;28;20542;-62
2023/03/09 05:35:18;;;;;;;27.10;15.45;;;1.10;99.90;;;;;;5074567;28;20041;-62
2023/03/09 05:37:44;;;;;;;24.65;14.30;;;1.10;99.90;;;;;;5074843;28;20115;-62
2023/03/09 05:40:11;;;;;;;26.75;14.48;;;1.10;99.90;;;;;;5055529;28;20572;-62
2023/03/09 05:42:37;;;;;;;32.50;15.43;;;1.10;99.90;;;;;;5073351;28;20056;-62
2023/03/09 05:45:04;;;;;;;27.52;15.18;;;1.10;99.90;;;;;;5072662;28;20043;-62
2023/03/09 05:47:30;;;;;;;25.83;14.98;;;1.00;99.90;;;;;;5080426;28;20051;-62
2023/03/09 05:49:56;;;;;;;26.65;13.55;;;1.00;99.90;;;;;;5093744;28;20048;-62
2023/03/09 05:52:22;;;;;;;25.98;13.45;;;1.00;99.90;;;;;;5092265;28;20044;-62
2023/03/09 05:54:47;;;;;;;29.20;14.63;;;1.10;99.90;;;;;;5094888;28;20039;-62
2023/03/09 05:57:13;;;;;;;24.17;14.25;;;1.00;99.90;;;;;;5092927;28;20040;-62
2023/03/09 05:59:40;;;;;;;30.65;15.13;;;1.00;99.90;;;;;;5092665;28;20036;-63
2023/03/09 06:02:06;;;;;;;24.63;13.07;;;1.10;99.90;;;;;;5089351;28;20032;-62
2023/03/09 06:04:31;;;;;;;23.73;14.02;;;1.00;99.90;;;;;;5092554;28;20059;-62
2023/03/09 06:06:57;;;;;;;25.85;14.60;;;1.00;99.90;;;;;;5092570;28;20119;-62
2023/03/09 06:09:23;;;;;;;27.23;14.40;;;1.00;99.90;;;;;;5092787;28;20118;-62
2023/03/09 06:11:48;;;;;;;25.05;13.23;;;1.00;99.90;;;;;;5093262;28;20044;-62
2023/03/09 06:14:14;;;;;;;27.92;13.90;;;1.00;99.90;;;;;;5092036;28;20048;-62
2023/03/09 06:16:40;;;;;;;27.38;14.30;;;0.90;99.90;;;;;;5092954;28;20050;-62
2023/03/09 06:19:06;;;;;;;28.10;14.65;;;0.90;99.90;;;;;;5073349;28;20041;-62
2023/03/09 06:21:31;;;;;;;27.58;15.50;;;0.90;99.90;;;;;;5072383;28;20083;-62
2023/03/09 06:23:57;;;;;;;27.25;15.50;;;0.90;99.90;;;;;;5056171;28;20089;-62
2023/03/09 06:26:24;;;;;;;31.05;15.35;;;0.80;99.90;;;;;;5073244;28;20029;-62
2023/03/09 06:28:50;;;;;;;25.48;13.70;;;0.80;99.90;;;;;;5075239;28;20048;-62
2023/03/09 06:31:17;;;;;;;27.25;14.43;;;0.80;99.90;;;;;;5095832;28;20032;-62
2023/03/09 06:33:44;;;;;;;24.30;14.65;;;0.80;99.90;;;;;;5091964;28;20039;-62
2023/03/09 06:36:11;;;;;;;24.90;13.98;;;0.80;99.90;;;;;;5091241;28;20081;-62
2023/03/09 06:38:37;;;;;;;26.85;14.48;;;0.80;99.90;;;;;;5092806;28;20067;-62
2023/03/09 06:41:03;;;;;;;27.65;14.77;;;0.80;99.90;;;;;;5091947;28;20075;-62
2023/03/09 06:43:29;;;;;;;26.30;13.88;;;0.80;99.90;;;;;;5074843;28;20043;-62
2023/03/09 06:45:54;;;;;;;22.85;14.27;;;0.80;99.90;;;;;;5094008;28;20036;-62
2023/03/09 06:48:21;;;;;;;30.98;16.25;;;0.80;99.90;;;;;;5108985;28;20131;-62
2023/03/09 06:50:48;;;;;;;24.92;13.40;;;0.80;99.90;;;;;;5114139;28;20077;-62
2023/03/09 06:53:14;;;;;;;23.08;14.20;;;0.80;99.90;;;;;;5112219;28;20044;-62
2023/03/09 06:55:40;;;;;;;28.05;15.02;;;0.80;99.90;;;;;;5098384;28;20086;-62
2023/03/09 06:58:06;;;;;;;24.02;13.93;;;0.80;99.90;;;;;;5092860;28;20512;-62
2023/03/09 07:00:37;;;;;;;23.65;14.20;;;0.80;99.90;;;;;;5090318;28;20033;-62
2023/03/09 07:03:11;;;;;;;27.17;15.73;;;0.80;99.90;;;;;;5072117;28;20033;-62
2023/03/09 07:05:37;;;;;;;26.13;13.77;;;0.90;99.90;;;;;;5071910;28;20047;-62
2023/03/09 07:08:03;;;;;;;25.23;13.45;;;0.90;99.90;;;;;;5071904;28;20041;-62
2023/03/09 07:10:28;;;;;;;22.48;12.63;;;0.90;99.90;;;;;;5072221;28;20383;-62
2023/03/09 07:12:54;;;;;;;25.70;14.45;;;0.90;99.90;;;;;;5073784;28;20071;-62
2023/03/09 07:15:20;;;;;;;23.80;13.52;;;0.90;99.90;;;;;;5074760;28;20761;-62
2023/03/09 07:17:45;;;;;;;26.05;13.57;;;0.90;99.90;;;;;;5092466;28;20032;-62
2023/03/09 07:20:12;;;;;;;24.73;14.23;;;1.00;99.90;;;;;;5103188;28;20038;-62
2023/03/09 07:22:38;;;;;;;24.42;12.60;;;1.00;99.90;;;;;;5089530;28;20040;-62
2023/03/09 07:25:04;;;;;;;25.15;13.35;;;1.00;99.90;;;;;;5088026;28;20082;-62
2023/03/09 07:27:30;;;;;;;22.88;13.15;;;1.00;99.90;;;;;;5088570;28;20777;-62
2023/03/09 07:29:56;;;;;;;19.92;12.00;;;1.10;99.90;;;;;;5088805;28;20484;-62
2023/03/09 07:32:22;;;;;;;26.70;12.77;;;1.10;99.90;;;;;;5070506;28;20094;-62
2023/03/09 07:34:48;;;;;;;22.13;11.90;;;1.20;99.90;;;;;;5091727;28;20035;-62
2023/03/09 07:37:14;;;;;;;20.55;12.07;;;1.20;99.90;;;;;;5087179;28;20043;-62
2023/03/09 07:39:39;;;;;;;22.17;11.57;;;1.30;99.90;;;;;;5070126;28;20040;-62
2023/03/09 07:42:05;;;;;;;20.85;11.30;;;1.40;99.90;;;;;;5089856;28;20123;-62
2023/03/09 07:44:31;;;;;;;21.05;12.32;;;1.50;99.90;;;;;;5089497;28;20111;-62
2023/03/09 07:46:57;;;;;;;18.63;11.13;;;1.50;99.90;;;;;;5090342;28;20131;-62
2023/03/09 07:49:23;;;;;;;19.05;11.27;;;1.60;99.90;;;;;;5100786;28;20539;-62
2023/03/09 07:51:48;;;;;;;20.40;11.18;;;1.70;99.90;;;;;;5088549;28;20051;-62
2023/03/09 07:57:55;;;;;;;22.30;11.48;;;1.70;99.90;;;;;;5089757;28;20050;-62
2023/03/09 08:00:23;;;;;;;16.60;10.35;;;1.80;99.90;;;;;;5069410;28;20040;-61
2023/03/09 08:02:48;;;;;;;19.20;10.70;;;1.90;99.90;;;;;;5088031;28;20508;-62
2023/03/09 08:05:15;;;;;;;19.27;11.55;;;1.90;99.90;;;;;;5084279;28;20067;-62
2023/03/09 08:07:44;;;;;;;16.77;10.00;;;2.00;99.90;;;;;;5083328;28;20051;-62
2023/03/09 08:10:10;;;;;;;20.15;10.73;;;2.00;99.90;;;;;;5088860;28;20073;-62
2023/03/09 08:12:36;;;;;;;16.65;11.00;;;2.00;99.90;;;;;;5098243;28;20046;-62
2023/03/09 08:15:02;;;;;;;19.83;11.50;;;2.10;99.90;;;;;;5104202;28;20037;-62
2023/03/09 08:17:28;;;;;;;21.10;10.32;;;2.10;99.90;;;;;;5091206;28;20408;-62
2023/03/09 08:19:54;;;;;;;18.23;10.70;;;2.20;99.90;;;;;;5088144;28;20044;-62
2023/03/09 08:22:20;;;;;;;21.33;11.00;;;2.20;99.90;;;;;;5084431;28;20055;-62
2023/03/09 08:24:45;;;;;;;18.08;10.68;;;2.20;99.90;;;;;;5051899;28;20040;-62
2023/03/09 08:27:11;;;;;;;18.13;11.35;;;2.20;99.90;;;;;;5067076;28;20043;-62
2023/03/09 08:29:37;;;;;;;20.73;12.90;;;2.30;99.90;;;;;;5096657;28;20058;-63
2023/03/09 08:32:09;;;;;;;18.40;9.98;;;2.30;99.90;;;;;;5104678;28;20047;-62
2023/03/09 08:34:36;;;;;;;18.33;10.80;;;2.30;99.90;;;;;;5086693;28;20090;-62
2023/03/09 08:37:02;;;;;;;17.85;10.50;;;2.40;99.90;;;;;;5077854;28;20079;-62
2023/03/09 08:39:28;;;;;;;16.90;9.13;;;2.40;99.90;;;;;;5067779;28;20460;-63
2023/03/09 08:41:53;;;;;;;14.10;8.60;;;2.40;99.90;;;;;;5083722;28;20133;-64
2023/03/09 08:44:19;;;;;;;13.40;8.68;;;2.40;99.90;;;;;;5058145;28;20389;-63
2023/03/09 08:46:45;;;;;;;16.65;9.65;;;2.50;99.90;;;;;;5084116;28;20110;-63
2023/03/09 08:49:10;;;;;;;18.52;9.77;;;2.50;99.90;;;;;;5086248;28;20040;-63
2023/03/09 08:51:37;;;;;;;14.52;9.10;;;2.60;99.90;;;;;;5088833;28;20048;-63
2023/03/09 08:54:03;;;;;;;16.60;9.75;;;2.70;99.90;;;;;;5070551;28;20040;-65
2023/03/09 08:56:28;;;;;;;16.13;8.68;;;2.70;99.90;;;;;;5086818;28;20060;-65
2023/03/09 08:58:54;;;;;;;17.92;9.75;;;2.70;99.90;;;;;;5095060;28;20389;-65
2023/03/09 09:01:20;;;;;;;13.45;8.07;;;2.80;99.90;;;;;;5105459;28;20044;-65
2023/03/09 09:03:45;;;;;;;16.58;10.43;;;2.80;99.90;;;;;;5111913;28;20035;-65
2023/03/09 09:06:14;;;;;;;14.98;8.13;;;2.90;99.90;;;;;;5110105;28;20088;-65
2023/03/09 09:08:40;;;;;;;13.82;7.53;;;3.00;99.90;;;;;;5113477;28;20097;-65
2023/03/09 09:11:15;;;;;;;15.80;9.15;;;3.10;99.90;;;;;;5111083;28;20484;-65
2023/03/09 09:13:41;;;;;;;15.90;8.65;;;3.00;99.90;;;;;;5072023;28;20150;-65
2023/03/09 09:16:08;;;;;;;14.00;8.45;;;3.10;99.90;;;;;;5091721;28;20131;-65
2023/03/09 09:18:36;;;;;;;13.63;8.40;;;3.10;99.90;;;;;;5081371;28;20071;-66
2023/03/09 09:21:07;;;;;;;13.70;8.30;;;3.20;99.90;;;;;;5092753;28;20115;-65
2023/03/09 09:23:37;;;;;;;12.88;7.22;;;3.30;99.90;;;;;;5073221;28;20489;-66
2023/03/09 09:26:03;;;;;;;12.50;8.13;;;3.30;99.90;;;;;;5079402;28;20338;-65
2023/03/09 09:28:30;;;;;;;13.38;7.55;;;3.30;99.90;;;;;;5101764;28;20037;-65
2023/03/09 09:31:01;;;;;;;12.38;7.45;;;3.30;99.90;;;;;;5077373;28;20043;-66
2023/03/09 09:33:28;;;;;;;14.18;7.85;;;3.30;99.90;;;;;;5099485;28;20028;-66
2023/03/09 09:36:10;;;;;;;12.00;7.18;;;3.30;99.90;;;;;;5112600;28;20032;-65
2023/03/09 09:38:37;;;;;;;12.63;7.28;;;3.30;99.90;;;;;;5082888;28;20040;-65
2023/03/09 09:41:12;;;;;;;13.40;7.93;;;3.30;99.90;;;;;;5090184;28;20127;-65
2023/03/09 09:43:41;;;;;;;13.48;8.10;;;3.40;99.90;;;;;;5087511;28;20040;-66
2023/03/09 09:46:12;;;;;;;13.18;8.25;;;3.50;99.90;;;;;;5094312;28;20040;-65
2023/03/09 09:48:40;;;;;;;14.30;7.15;;;3.60;99.90;;;;;;5093720;28;20040;-65
2023/03/09 09:51:15;;;;;;;10.60;6.07;;;3.70;99.90;;;;;;5093517;28;20040;-65
2023/03/09 09:54:20;;;;;;;13.30;7.85;;;3.80;99.90;;;;;;5094301;28;20389;-65
2023/03/09 09:56:54;;;;;;;10.45;6.53;;;3.90;99.90;;;;;;5093703;28;20047;-63
2023/03/09 09:59:37;;;;;;;10.55;6.07;;;3.90;99.90;;;;;;5092221;28;20036;-63
2023/03/09 10:02:09;;;;;;;10.95;6.30;;;3.90;99.90;;;;;;5094563;28;20036;-64
2023/03/09 10:04:55;;;;;;;10.93;6.15;;;3.90;99.90;;;;;;5096946;28;20043;-64
2023/03/09 10:07:23;;;;;;;12.55;6.95;;;3.80;99.90;;;;;;5074623;28;20490;-64
2023/03/09 10:10:01;;;;;;;13.20;6.28;;;3.90;99.90;;;;;;5105033;28;20049;-65
2023/03/09 10:12:27;;;;;;;10.77;6.20;;;4.00;99.90;;;;;;5085964;28;20051;-65
2023/03/09 10:14:59;;;;;;;10.23;6.85;;;3.90;99.90;;;;;;5072673;28;20037;-65
2023/03/09 10:17:34;;;;;;;10.27;6.50;;;4.00;99.90;;;;;;5088718;28;20536;-65
2023/03/09 10:20:10;;;;;;;16.27;6.88;;;4.20;99.90;;;;;;5092336;28;20047;-65
2023/03/09 10:22:38;;;;;;;11.20;6.45;;;4.40;99.90;;;;;;5087371;28;20032;-65
2023/03/09 10:25:16;;;;;;;11.23;6.47;;;4.50;99.90;;;;;;5073548;28;20037;-65
2023/03/09 10:27:51;;;;;;;9.93;5.97;;;4.60;99.90;;;;;;5071919;28;20048;-65
2023/03/09 10:30:42;;;;;;;10.77;7.15;;;4.60;99.90;;;;;;5091308;28;20044;-65
2023/03/09 10:33:25;;;;;;;16.58;9.27;;;4.60;99.90;;;;;;5074541;28;20401;-65
2023/03/09 10:36:12;;;;;;;26.02;14.32;;;4.60;99.90;;;;;;5092450;28;20044;-65
2023/03/09 10:38:39;;;;;;;101.88;48.28;;;4.60;99.90;;;;;;5092106;28;20058;-65
2023/03/09 10:41:17;;;;;;;44.78;22.90;;;4.60;99.90;;;;;;5091283;28;20389;-65
2023/03/09 10:43:43;;;;;;;32.33;15.40;;;4.60;99.90;;;;;;5092629;28;20468;-65
2023/03/09 10:46:20;;;;;;;15.65;11.23;;;4.50;99.90;;;;;;5092889;28;20521;-65
2023/03/09 10:49:07;;;;;;;11.13;7.22;;;4.40;99.90;;;;;;5093278;28;20071;-65
2023/03/09 10:51:38;;;;;;;12.25;7.30;;;4.50;99.90;;;;;;5075627;28;20545;-64
2023/03/09 10:54:24;;;;;;;12.02;7.10;;;4.50;99.90;;;;;;5101579;28;20381;-64
2023/03/09 10:56:52;;;;;;;10.98;6.85;;;4.60;99.90;;;;;;5114528;28;20040;-64
2023/03/09 10:59:23;;;;;;;10.40;6.22;;;4.60;99.90;;;;;;5112347;28;20039;-64
2023/03/09 11:01:51;;;;;;;10.93;6.97;;;4.70;99.90;;;;;;5075558;28;20098;-64
2023/03/09 11:04:23;;;;;;;10.25;5.90;;;4.70;99.90;;;;;;5056543;28;20085;-64
2023/03/09 11:07:00;;;;;;;13.25;8.40;;;4.70;99.90;;;;;;5100713;28;20051;-65
2023/03/09 11:09:34;;;;;;;15.88;10.32;;;4.70;99.90;;;;;;5108937;28;20896;-60
2023/03/09 11:12:08;;;;;;;13.93;8.87;;;4.70;99.90;;;;;;5110864;28;20123;-61
2023/03/09 11:14:41;;;;;;;10.80;7.32;;;4.70;99.90;;;;;;5113999;28;20276;-60
2023/03/09 11:17:26;;;;;;;10.52;6.63;;;4.60;99.90;;;;;;5111447;28;20028;-61
2023/03/09 11:20:18;;;;;;;12.85;7.82;;;4.60;99.90;;;;;;5112049;28;20088;-60
2023/03/09 11:23:00;;;;;;;16.23;9.27;;;4.70;99.90;;;;;;5103594;28;20766;-60
2023/03/09 11:25:41;;;;;;;12.63;8.18;;;4.80;99.90;;;;;;5091699;28;20086;-60
2023/03/09 11:28:40;;;;;;;10.43;6.72;;;5.00;99.90;;;;;;5093032;28;20040;-60
2023/03/09 11:31:13;;;;;;;11.02;6.95;;;5.00;99.90;;;;;;5083252;28;20489;-60
2023/03/09 11:33:39;;;;;;;11.85;7.45;;;5.00;99.90;;;;;;5081587;28;20044;-60
2023/03/09 11:36:09;;;;;;;11.43;6.93;;;5.00;99.90;;;;;;5057167;28;20054;-61
2023/03/09 11:38:34;;;;;;;51.70;27.67;;;5.10;99.90;;;;;;5084843;28;20048;-60
2023/03/09 11:41:12;;;;;;;31.33;17.63;;;5.10;99.90;;;;;;5077279;28;20056;-61
2023/03/09 11:43:41;;;;;;;14.60;8.57;;;5.10;99.90;;;;;;5070654;28;20377;-60
2023/03/09 11:46:13;;;;;;;11.20;6.57;;;5.10;99.90;;;;;;5070406;28;20388;-60
2023/03/09 11:48:47;;;;;;;11.65;7.00;;;5.20;99.90;;;;;;5079434;28;20130;-60
2023/03/09 11:51:14;;;;;;;14.45;9.43;;;5.20;99.90;;;;;;5073985;28;20086;-60
2023/03/09 11:53:52;;;;;;;11.75;8.43;;;5.20;99.90;;;;;;5073474;28;20044;-60
2023/03/09 11:56:27;;;;;;;12.30;7.40;;;5.20;99.90;;;;;;5060746;28;20098;-61
2023/03/09 11:59:16;;;;;;;11.77;8.95;;;5.20;99.90;;;;;;5077941;28;20036;-61
2023/03/09 12:02:10;;;;;;;8.95;6.30;;;5.20;99.90;;;;;;5092473;28;20135;-61
2023/03/09 12:04:36;;;;;;;12.32;6.78;;;5.20;99.90;;;;;;5091205;28;20032;-60
2023/03/09 12:07:16;;;;;;;9.00;5.38;;;5.20;99.90;;;;;;5092095;28;20062;-60
2023/03/09 12:09:51;;;;;;;10.63;6.00;;;5.20;99.90;;;;;;5077798;28;20045;-60
2023/03/09 12:12:36;;;;;;;8.65;5.35;;;5.30;99.90;;;;;;5070811;28;20105;-61
2023/03/09 12:15:21;;;;;;;8.90;5.93;;;5.30;99.90;;;;;;5071392;28;20502;-60
2023/03/09 12:17:58;;;;;;;10.48;7.78;;;5.30;99.90;;;;;;5070759;28;20041;-60
2023/03/09 12:20:38;;;;;;;9.45;5.85;;;5.30;99.90;;;;;;5070671;28;20481;-60
2023/03/09 12:23:24;;;;;;;11.70;6.35;;;5.20;99.90;;;;;;5070633;28;20036;-60
2023/03/09 12:25:57;;;;;;;16.40;10.82;;;5.20;99.90;;;;;;5071187;28;20044;-60
2023/03/09 12:28:22;;;;;;;10.52;7.05;;;5.20;99.90;;;;;;5070265;28;20041;-60
2023/03/09 12:30:54;;;;;;;16.00;9.43;;;5.20;99.90;;;;;;5072001;28;20052;-60
2023/03/09 12:33:41;;;;;;;12.60;8.18;;;5.20;99.90;;;;;;5074646;28;20485;-60
2023/03/09 12:36:31;;;;;;;10.15;5.40;;;5.20;99.90;;;;;;5074457;28;20401;-60
2023/03/09 12:39:22;;;;;;;12.35;7.65;;;5.20;99.90;;;;;;5075192;28;20493;-60
2023/03/09 12:42:22;;;;;;;12.45;7.13;;;5.30;99.90;;;;;;5090903;28;20053;-60
2023/03/09 12:44:51;;;;;;;9.50;6.32;;;5.20;99.90;;;;;;5091425;28;20512;-60
2023/03/09 12:47:19;;;;;;;6.82;4.25;;;5.20;99.90;;;;;;5073300;28;20044;-59
2023/03/09 12:49:48;;;;;;;9.23;5.85;;;5.20;99.90;;;;;;5074485;28;20082;-59
2023/03/09 12:52:43;;;;;;;9.10;6.13;;;5.20;99.90;;;;;;5075449;28;20382;-59
2023/03/09 12:55:25;;;;;;;9.75;6.10;;;5.20;99.90;;;;;;5090343;28;20036;-59
2023/03/09 12:58:11;;;;;;;9.45;6.38;;;5.20;99.90;;;;;;5074279;28;20044;-59